Terminal Aerodrome Forecast
Issued by NWS Billings, MT

Home | Current Version | Previous Version | Text Only | Print | Product List | Glossary Off
Versions: 1 2 3 4 5 6 7 8 9 10 11 12

000
FTUS45 KBYZ 201739
TAFMLS
TAF
KMLS 201739Z 2018/2118 26009KT P6SM SKC
     FM202200 20009KT P6SM SKC
     FM210600 24008KT P6SM SKC WS020/27039KT
     FM211500 17007KT 5SM -RA SCT015 OVC040=

USA.gov is the U.S. government's official web portal to all federal, state and local government web resources and services.